Time;durP1;ratioP1;P1;durP2;ratioP2;P2;SDS_P1;SDS_P2;PMS_P1;PMS_P2;Temp;Humidity;BMP_temperature;BMP_pressure;BME280_temperature;BME280_humidity;BME280_pressure;Samples;Min_cycle;Max_cycle;Signal;HPM_P1;HPM_P2
2021/10/14 00:00:12;;;;;;;8.80;4.50;;;;;;;14.53;58.88;102527.69;4965977;28;124972;-63
2021/10/14 00:02:39;;;;;;;9.77;4.93;;;;;;;14.51;58.79;102524.22;4961253;28;119265;-63
2021/10/14 00:05:09;;;;;;;10.88;5.15;;;;;;;14.48;59.00;102518.97;4963925;28;119278;-63
2021/10/14 00:07:36;;;;;;;11.63;4.97;;;;;;;14.47;59.13;102522.59;4960807;28;123929;-63
2021/10/14 00:10:05;;;;;;;8.30;4.93;;;;;;;14.46;59.34;102526.16;4961006;28;122547;-63
2021/10/14 00:12:33;;;;;;;9.52;4.93;;;;;;;14.45;59.45;102529.75;4963038;28;120347;-63
2021/10/14 00:15:00;;;;;;;9.32;4.80;;;;;;;14.44;59.32;102530.66;4963598;28;119876;-63
2021/10/14 00:17:27;;;;;;;8.68;5.68;;;;;;;14.43;59.58;102518.28;4937457;28;123493;-63
2021/10/14 00:19:54;;;;;;;11.82;6.00;;;;;;;14.42;59.60;102524.53;4949867;28;123988;-63
2021/10/14 00:22:22;;;;;;;9.38;5.70;;;;;;;14.40;59.68;102515.72;4955951;28;119362;-63
2021/10/14 00:24:49;;;;;;;12.05;6.22;;;;;;;14.38;59.65;102522.91;4957745;28;118925;-63
2021/10/14 00:27:16;;;;;;;10.93;6.03;;;;;;;14.37;59.81;102515.81;4958023;28;124365;-64
2021/10/14 00:29:43;;;;;;;8.27;6.07;;;;;;;14.36;59.96;102511.41;4936353;28;123009;-64
2021/10/14 00:32:11;;;;;;;11.48;6.97;;;;;;;14.36;60.20;102509.63;4938493;28;120202;-64
2021/10/14 00:34:38;;;;;;;9.85;6.40;;;;;;;14.35;60.13;102507.88;4961539;28;119485;-64
2021/10/14 00:37:05;;;;;;;14.73;7.13;;;;;;;14.36;60.11;102508.75;4934645;28;123088;-64
2021/10/14 00:39:32;;;;;;;12.50;7.30;;;;;;;14.36;60.14;102514.09;4952129;28;124225;-64
2021/10/14 00:41:59;;;;;;;12.07;7.32;;;;;;;14.36;60.24;102514.09;4950822;28;118527;-63
2021/10/14 00:44:27;;;;;;;15.68;7.80;;;;;;;14.36;60.28;102508.75;4961915;28;119718;-64
2021/10/14 00:46:55;;;;;;;12.95;7.70;;;;;;;14.35;60.45;102507.00;4956379;28;124111;-64
2021/10/14 00:49:23;;;;;;;13.00;8.07;;;;;;;14.36;60.43;102508.75;4954938;28;124612;-64
2021/10/14 00:51:50;;;;;;;15.63;8.52;;;;;;;14.34;60.55;102506.13;4966126;28;119919;-64
2021/10/14 00:54:19;;;;;;;14.70;9.15;;;;;;;14.34;60.57;102508.78;4965394;28;118972;-64
2021/10/14 00:56:46;;;;;;;17.08;9.30;;;;;;;14.34;60.68;102499.94;4962695;28;124740;-64
2021/10/14 00:59:14;;;;;;;15.98;9.27;;;;;;;14.35;60.71;102491.00;4965183;28;123943;-63
2021/10/14 01:01:42;;;;;;;15.88;9.38;;;;;;;14.35;60.66;102480.34;4958862;28;121490;-64
2021/10/14 01:04:09;;;;;;;14.43;9.20;;;;;;;14.36;60.88;102474.09;4944281;28;120630;-64
2021/10/14 01:06:36;;;;;;;15.27;9.30;;;;;;;14.35;60.89;102475.00;4961269;28;124372;-64
2021/10/14 01:09:03;;;;;;;19.63;10.52;;;;;;;14.35;60.90;102469.69;4962593;28;123988;-63
2021/10/14 01:11:32;;;;;;;17.55;10.68;;;;;;;14.35;60.96;102470.56;4958105;28;119401;-63
2021/10/14 01:13:59;;;;;;;18.67;10.70;;;;;;;14.35;61.07;102464.34;4960613;28;118974;-63
2021/10/14 01:16:26;;;;;;;18.02;10.57;;;;;;;14.34;61.05;102474.16;4958020;28;123361;-63
2021/10/14 01:18:53;;;;;;;20.00;11.07;;;;;;;14.35;61.21;102469.69;4965247;28;124997;-63
2021/10/14 01:21:20;;;;;;;19.98;11.80;;;;;;;14.35;61.09;102464.34;4963301;28;120199;-63
2021/10/14 01:23:48;;;;;;;21.55;11.00;;;;;;;14.36;61.29;102471.44;4961540;28;119774;-63
2021/10/14 01:26:15;;;;;;;22.58;11.18;;;;;;;14.36;61.27;102472.28;4962434;28;124090;-63
2021/10/14 01:28:42;;;;;;;21.67;11.65;;;;;;;14.37;61.30;102470.50;4964728;28;122930;-63
2021/10/14 01:31:09;;;;;;;19.63;11.80;;;;;;;14.38;61.42;102464.25;4946715;28;119314;-63
2021/10/14 01:33:36;;;;;;;21.15;11.38;;;;;;;14.40;61.33;102454.41;4960388;28;119184;-63
2021/10/14 01:36:03;;;;;;;19.80;11.30;;;;;;;14.39;61.49;102456.22;4953740;28;124728;-63
2021/10/14 01:38:31;;;;;;;22.88;11.57;;;;;;;14.40;61.70;102451.75;4952396;28;123690;-63
2021/10/14 01:40:58;;;;;;;21.40;11.57;;;;;;;14.40;61.46;102449.94;4942767;28;117249;-64
2021/10/14 01:43:26;;;;;;;21.52;12.50;;;;;;;14.41;61.66;102454.34;4956165;28;119135;-63
2021/10/14 01:45:53;;;;;;;22.45;12.50;;;;;;;14.41;61.69;102448.16;4949103;28;124110;-64
2021/10/14 01:48:22;;;;;;;23.25;12.80;;;;;;;14.42;61.62;102455.22;4953668;28;123637;-63
2021/10/14 01:50:49;;;;;;;22.55;12.45;;;;;;;14.43;61.89;102456.97;4957270;28;120256;-64
2021/10/14 01:53:16;;;;;;;23.77;13.07;;;;;;;14.43;61.80;102456.97;4953547;28;120118;-64
2021/10/14 01:55:43;;;;;;;24.83;12.77;;;;;;;14.44;61.72;102458.69;4952961;28;124107;-63
2021/10/14 01:58:16;;;;;;;23.08;13.20;;;;;;;14.44;61.74;102458.69;4951495;28;124706;-64
2021/10/14 02:00:44;;;;;;;23.50;13.82;;;;;;;14.47;62.08;102447.94;4961391;28;119516;-63
2021/10/14 02:03:12;;;;;;;26.02;13.73;;;;;;;14.48;61.97;102451.47;4942285;28;118044;-63
2021/10/14 02:05:40;;;;;;;26.58;14.07;;;;;;;14.49;61.84;102451.41;4958682;28;124886;-63
2021/10/14 02:08:07;;;;;;;30.02;15.35;;;;;;;14.48;61.92;102444.31;4953684;28;124706;-63
2021/10/14 02:10:34;;;;;;;25.80;13.90;;;;;;;14.49;61.98;102451.41;4955622;28;119400;-63
2021/10/14 02:13:03;;;;;;;26.35;14.00;;;;;;;14.51;62.01;102449.56;4959973;28;119282;-63
2021/10/14 02:15:30;;;;;;;29.23;15.07;;;;;;;14.52;62.11;102445.97;4954638;28;124273;-64
2021/10/14 02:17:58;;;;;;;28.60;14.65;;;;;;;14.53;62.08;102455.69;4959636;28;123800;-63
2021/10/14 02:20:25;;;;;;;28.17;15.05;;;;;;;14.55;62.13;102445.00;4957095;28;119383;-63
2021/10/14 02:22:53;;;;;;;27.83;15.52;;;;;;;14.54;62.05;102444.13;4949333;28;119741;-64
2021/10/14 02:25:20;;;;;;;26.73;14.60;;;;;;;14.55;62.12;102450.31;4942649;28;123115;-64
2021/10/14 02:27:47;;;;;;;30.38;15.85;;;;;;;14.55;62.21;102445.84;4960001;28;123965;-64
2021/10/14 02:30:14;;;;;;;29.42;16.10;;;;;;;14.56;62.29;102436.94;4961358;28;119093;-63
2021/10/14 02:32:42;;;;;;;30.63;16.35;;;;;;;14.57;62.04;102438.69;4965215;28;119466;-64
2021/10/14 02:35:09;;;;;;;32.42;17.08;;;;;;;14.58;62.10;102439.59;4955498;28;124394;-63
2021/10/14 02:37:37;;;;;;;33.20;17.27;;;;;;;14.58;62.25;102439.59;4959217;28;123768;-64
2021/10/14 02:40:05;;;;;;;30.27;16.33;;;;;;;14.57;62.25;102444.03;4954954;28;121057;-64
2021/10/14 02:42:32;;;;;;;28.33;15.65;;;;;;;14.58;62.24;102431.59;4959784;28;119767;-64
2021/10/14 02:44:59;;;;;;;28.20;15.68;;;;;;;14.57;62.34;102428.03;4955284;28;124624;-64
2021/10/14 02:47:27;;;;;;;30.38;15.38;;;;;;;14.58;62.30;102424.47;4954417;28;124053;-63
2021/10/14 02:49:54;;;;;;;28.15;16.15;;;;;;;14.58;62.23;102421.78;4960070;28;119058;-64
2021/10/14 02:52:21;;;;;;;28.27;14.77;;;;;;;14.58;62.14;102427.13;4949622;28;117866;-63
2021/10/14 02:54:48;;;;;;;28.13;16.08;;;;;;;14.59;62.22;102428.84;4963343;28;123908;-64
2021/10/14 02:57:15;;;;;;;28.98;15.55;;;;;;;14.59;62.27;102431.50;4966926;28;123714;-63
2021/10/14 02:59:42;;;;;;;27.98;15.02;;;;;;;14.60;62.25;102430.59;4963410;28;119166;-64
2021/10/14 03:02:09;;;;;;;26.50;15.10;;;;;;;14.59;62.31;102431.50;4965406;28;123901;-64
2021/10/14 03:04:37;;;;;;;25.63;14.38;;;;;;;14.60;62.28;102433.25;4961761;28;124392;-63
2021/10/14 03:07:04;;;;;;;26.20;14.43;;;;;;;14.59;62.31;102431.50;4961820;28;124307;-64
2021/10/14 03:09:31;;;;;;;28.63;14.82;;;;;;;14.60;62.39;102427.94;4944550;28;119210;-63
2021/10/14 03:11:58;;;;;;;25.90;14.23;;;;;;;14.62;62.29;102440.31;4964537;28;119640;-64
2021/10/14 03:14:25;;;;;;;25.50;13.68;;;;;;;14.63;62.27;102436.75;4963012;28;124196;-64
2021/10/14 03:16:52;;;;;;;24.02;13.80;;;;;;;14.63;62.19;102436.75;4965354;28;123700;-64
2021/10/14 03:19:19;;;;;;;24.52;14.27;;;;;;;14.63;62.41;102436.75;4966889;28;119007;-64
2021/10/14 03:21:46;;;;;;;23.40;13.32;;;;;;;14.63;62.37;102436.75;4965622;28;119093;-63
2021/10/14 03:24:13;;;;;;;25.92;13.52;;;;;;;14.65;62.23;102429.56;4962701;28;123151;-63
2021/10/14 03:26:40;;;;;;;22.10;13.40;;;;;;;14.66;62.24;102431.31;4968500;28;123841;-63
2021/10/14 03:29:08;;;;;;;28.00;13.73;;;;;;;14.66;62.26;102436.66;4962419;28;121256;-63
2021/10/14 03:31:35;;;;;;;23.10;13.65;;;;;;;14.66;62.14;102434.84;4947414;28;120149;-63
2021/10/14 03:34:03;;;;;;;27.23;14.20;;;;;;;14.67;62.26;102433.03;4961705;28;124530;-63
2021/10/14 03:36:30;;;;;;;23.20;13.60;;;;;;;14.67;62.32;102427.69;4948977;28;122945;-63
2021/10/14 03:38:57;;;;;;;22.13;12.85;;;;;;;14.66;62.27;102426.84;4962066;28;119120;-63
2021/10/14 03:41:24;;;;;;;24.38;12.60;;;;;;;14.66;62.27;102426.84;4963961;28;119211;-63
2021/10/14 03:43:51;;;;;;;23.23;12.77;;;;;;;14.67;62.39;102425.03;4961821;28;124095;-63
2021/10/14 03:46:18;;;;;;;24.77;14.02;;;;;;;14.67;62.47;102427.69;4961014;28;124080;-63
2021/10/14 03:48:46;;;;;;;26.92;13.32;;;;;;;14.68;62.45;102426.78;4958733;28;119618;-63
2021/10/14 03:51:13;;;;;;;21.88;13.07;;;;;;;14.69;62.36;102428.50;4948057;28;119855;-63
2021/10/14 03:53:40;;;;;;;24.08;12.20;;;;;;;14.70;62.31;102430.25;4966912;28;125200;-63
2021/10/14 03:56:07;;;;;;;25.60;12.98;;;;;;;14.70;62.45;102422.25;4961820;28;124715;-64
2021/10/14 03:58:34;;;;;;;25.38;12.95;;;;;;;14.69;62.43;102415.19;4935769;28;119261;-63
2021/10/14 04:01:01;;;;;;;22.83;12.60;;;;;;;14.69;62.51;102421.41;4983164;22;118040;-69
2021/10/14 04:03:28;;;;;;;25.38;12.35;;;;;;;14.71;62.52;102424.00;4981369;28;124167;-69
2021/10/14 04:05:56;;;;;;;22.70;12.43;;;;;;;14.72;62.46;102420.41;4981257;28;124056;-69
2021/10/14 04:08:23;;;;;;;24.63;12.43;;;;;;;14.72;62.46;102425.75;4966892;28;119201;-69
2021/10/14 04:10:50;;;;;;;25.75;12.70;;;;;;;14.74;62.68;102434.56;4968651;28;118931;-69
2021/10/14 04:13:17;;;;;;;22.67;12.98;;;;;;;14.75;62.39;102428.31;4968302;28;124618;-69
2021/10/14 04:15:44;;;;;;;23.92;12.45;;;;;;;14.75;62.48;102422.97;4968619;28;124580;-69
2021/10/14 04:18:12;;;;;;;21.95;11.93;;;;;;;14.76;62.47;102422.03;4968824;28;119412;-69
2021/10/14 04:20:39;;;;;;;23.83;11.95;;;;;;;14.76;62.51;102427.38;4969530;28;120063;-69
2021/10/14 04:23:07;;;;;;;24.20;12.50;;;;;;;14.77;62.50;102419.31;4970126;28;123831;-69
2021/10/14 04:25:34;;;;;;;23.48;12.52;;;;;;;14.77;62.45;102419.31;4968013;28;124537;-69
2021/10/14 04:28:02;;;;;;;24.35;11.82;;;;;;;14.78;62.53;102420.16;4967172;28;119908;-69
2021/10/14 04:30:29;;;;;;;23.60;12.13;;;;;;;14.79;62.50;102416.59;4954187;28;118920;-69
2021/10/14 04:32:57;;;;;;;22.42;11.57;;;;;;;14.78;62.59;102412.16;4967467;28;124121;-69
2021/10/14 04:35:24;;;;;;;26.67;13.38;;;;;;;14.79;62.59;102416.59;4950215;28;123617;-69
2021/10/14 04:37:51;;;;;;;23.00;12.68;;;;;;;14.79;62.57;102408.59;4967607;28;119420;-69
2021/10/14 04:40:19;;;;;;;23.42;12.18;;;;;;;14.79;62.81;102405.91;4951445;28;118592;-69
2021/10/14 04:42:46;;;;;;;21.67;11.45;;;;;;;14.80;62.47;102402.31;4966388;28;124087;-68
2021/10/14 04:45:14;;;;;;;20.27;11.32;;;;;;;14.80;62.49;102402.31;4964413;28;123796;-68
2021/10/14 04:47:41;;;;;;;23.33;12.13;;;;;;;14.82;62.53;102395.13;4969560;28;119622;-68
2021/10/14 04:50:08;;;;;;;24.45;11.77;;;;;;;14.81;62.56;102392.53;4964860;28;119020;-68
2021/10/14 04:52:36;;;;;;;20.60;11.73;;;;;;;14.81;62.56;102393.41;4967777;28;124027;-68
2021/10/14 04:55:05;;;;;;;21.73;13.27;;;;;;;14.81;62.51;102390.72;4965480;28;123880;-68
2021/10/14 04:57:32;;;;;;;24.60;12.05;;;;;;;14.81;62.37;102393.41;4967193;28;118628;-68
2021/10/14 05:00:00;;;;;;;26.02;12.73;;;;;;;14.80;62.40;102380.97;4950701;28;118269;-68
2021/10/14 05:02:27;;;;;;;22.17;12.07;;;;;;;14.82;62.36;102394.25;4966469;28;124516;-69
2021/10/14 05:04:54;;;;;;;21.23;12.00;;;;;;;14.81;62.54;102388.06;4951157;28;122815;-68
2021/10/14 05:07:21;;;;;;;27.42;12.90;;;;;;;14.82;62.42;102381.78;4966320;28;120068;-69
2021/10/14 05:09:48;;;;;;;23.83;12.65;;;;;;;14.82;62.32;102389.78;4965576;28;120667;-69
2021/10/14 05:12:16;;;;;;;24.45;12.38;;;;;;;14.83;62.41;102394.19;4966540;28;123971;-69
2021/10/14 05:14:43;;;;;;;24.05;12.10;;;;;;;14.84;62.34;102387.06;4963207;28;123859;-69
2021/10/14 05:17:10;;;;;;;25.60;11.93;;;;;;;14.83;62.49;102388.88;4968493;28;120462;-69
2021/10/14 05:19:37;;;;;;;21.83;12.52;;;;;;;14.82;62.39;102389.78;4965924;28;118832;-69
2021/10/14 05:22:04;;;;;;;23.13;12.25;;;;;;;14.83;62.37;102391.53;4967422;28;124367;-69
2021/10/14 05:24:31;;;;;;;18.98;12.00;;;;;;;14.81;62.54;102398.72;4968354;28;123664;-69
2021/10/14 05:26:58;;;;;;;23.58;12.07;;;;;;;14.82;62.41;102395.13;4951502;28;119694;-69
2021/10/14 05:29:25;;;;;;;22.13;11.85;;;;;;;14.83;62.60;102393.34;4967690;28;119115;-69
2021/10/14 05:31:53;;;;;;;24.55;12.38;;;;;;;14.82;62.48;102400.44;4966207;28;123140;-69
2021/10/14 05:34:20;;;;;;;20.88;12.30;;;;;;;14.84;62.51;102403.06;4966064;28;124445;-68
2021/10/14 05:36:47;;;;;;;22.90;13.15;;;;;;;14.85;62.66;102400.34;4968137;28;119246;-69
2021/10/14 05:39:14;;;;;;;25.00;12.57;;;;;;;14.86;62.66;102402.09;4962715;28;119528;-69
2021/10/14 05:41:41;;;;;;;23.30;11.63;;;;;;;14.88;62.57;102404.69;4966148;28;124721;-68
2021/10/14 05:44:08;;;;;;;22.05;11.82;;;;;;;14.89;62.64;102401.97;4967632;28;123964;-68
2021/10/14 05:46:35;;;;;;;25.27;12.30;;;;;;;14.90;62.56;102409.06;4967544;28;119273;-68
2021/10/14 05:49:03;;;;;;;23.33;11.90;;;;;;;14.91;62.59;102404.56;4950348;28;118708;-68
2021/10/14 05:51:30;;;;;;;22.30;12.20;;;;;;;14.91;62.63;102410.78;4967747;28;123801;-69
2021/10/14 05:53:57;;;;;;;21.35;11.95;;;;;;;14.92;62.44;102412.53;4968174;28;123738;-69
2021/10/14 05:56:25;;;;;;;25.10;12.68;;;;;;;14.93;62.51;102413.38;4966020;28;120281;-70
2021/10/14 05:58:53;;;;;;;19.88;11.90;;;;;;;14.94;62.50;102418.66;4965603;28;122679;-70
2021/10/14 06:01:20;;;;;;;20.90;11.48;;;;;;;14.95;62.56;102423.06;4969154;28;123907;-69
2021/10/14 06:03:48;;;;;;;24.95;12.10;;;;;;;14.96;62.64;102414.16;4969589;28;124282;-69
2021/10/14 06:06:15;;;;;;;21.80;12.35;;;;;;;14.97;62.51;102410.56;4968643;28;119690;-69
2021/10/14 06:08:42;;;;;;;21.77;12.13;;;;;;;14.98;62.35;102416.75;4967988;28;120354;-68
2021/10/14 06:11:09;;;;;;;22.10;12.23;;;;;;;14.97;62.48;102410.56;4967935;28;124110;-70
2021/10/14 06:13:36;;;;;;;22.05;11.18;;;;;;;14.97;62.54;102410.56;4969012;28;124255;-70
2021/10/14 06:16:05;;;;;;;23.23;12.30;;;;;;;14.97;62.56;102415.91;4963915;28;119839;-69
2021/10/14 06:18:33;;;;;;;21.63;11.80;;;;;;;14.98;62.76;102412.28;4965027;28;119566;-69
2021/10/14 06:21:00;;;;;;;21.50;11.50;;;;;;;14.98;62.55;102412.28;4952804;28;123592;-69
2021/10/14 06:23:27;;;;;;;22.50;12.13;;;;;;;15.01;62.66;102405.09;4968134;28;123792;-70
2021/10/14 06:25:58;;;;;;;21.17;11.50;;;;;;;14.99;62.47;102406.03;4950512;28;120096;-72
2021/10/14 06:28:25;;;;;;;26.80;12.05;;;;;;;15.00;62.63;102404.22;4969471;28;119720;-70
2021/10/14 06:30:52;;;;;;;23.90;12.35;;;;;;;14.99;62.67;102403.38;4969076;28;124100;-69
2021/10/14 06:33:19;;;;;;;21.48;12.35;;;;;;;14.96;62.64;102398.13;4952049;28;124583;-69
2021/10/14 06:35:46;;;;;;;23.75;12.70;;;;;;;14.98;62.84;102396.28;4951784;28;118546;-70
2021/10/14 06:38:13;;;;;;;22.08;12.40;;;;;;;14.97;62.78;102394.56;4972188;28;118512;-69
2021/10/14 06:40:41;;;;;;;22.08;12.77;;;;;;;14.97;62.84;102391.88;4969105;28;124813;-68
2021/10/14 06:43:08;;;;;;;23.75;12.10;;;;;;;14.97;62.72;102399.88;4968957;28;124651;-69
2021/10/14 06:45:36;;;;;;;24.20;12.15;;;;;;;14.96;62.92;102392.81;4969332;28;120280;-69
2021/10/14 06:48:04;;;;;;;23.25;12.40;;;;;;;14.97;62.91;102388.31;4954262;28;119224;-69
2021/10/14 06:50:31;;;;;;;23.48;12.35;;;;;;;14.96;63.01;102400.81;4970708;28;124830;-69
2021/10/14 06:53:00;;;;;;;26.25;12.98;;;;;;;14.98;62.94;102395.41;4970368;28;124545;-69
2021/10/14 06:55:27;;;;;;;22.48;12.20;;;;;;;14.97;63.04;102394.56;4969242;28;119558;-69
2021/10/14 06:57:57;;;;;;;25.05;11.85;;;;;;;14.98;62.95;102401.63;4966763;28;119042;-69
2021/10/14 07:00:24;;;;;;;23.08;12.13;;;;;;;15.00;63.03;102406.91;4970128;28;125591;-69
2021/10/14 07:02:51;;;;;;;24.55;12.35;;;;;;;15.01;62.94;102405.09;4967966;28;124342;-68
2021/10/14 07:05:20;;;;;;;23.27;12.00;;;;;;;14.99;63.12;102398.03;4968793;28;118952;-68
2021/10/14 07:07:47;;;;;;;23.17;11.70;;;;;;;15.01;63.20;102394.41;4969051;28;119171;-68
2021/10/14 07:10:15;;;;;;;20.58;11.68;;;;;;;15.03;63.03;102397.88;4952599;28;123087;-68
2021/10/14 07:12:43;;;;;;;21.95;11.77;;;;;;;15.03;63.16;102405.91;4944931;28;123940;-68
2021/10/14 07:15:10;;;;;;;23.05;11.15;;;;;;;15.04;63.19;102394.31;4965683;28;119331;-68
2021/10/14 07:17:37;;;;;;;22.10;11.20;;;;;;;15.04;63.20;102399.66;4969822;28;118249;-67
2021/10/14 07:20:06;;;;;;;20.55;11.23;;;;;;;15.04;63.20;102400.50;4967534;28;125022;-67
2021/10/14 07:22:33;;;;;;;23.63;11.52;;;;;;;15.06;63.20;102398.63;4967926;28;124026;-66
2021/10/14 07:25:01;;;;;;;20.55;11.10;;;;;;;15.07;63.22;102399.50;4969115;28;119540;-67
2021/10/14 07:27:28;;;;;;;22.70;11.55;;;;;;;15.07;63.34;102395.06;4970737;28;118911;-67
2021/10/14 07:29:55;;;;;;;21.45;11.27;;;;;;;15.09;63.26;102397.69;4970319;28;124405;-67
2021/10/14 07:32:22;;;;;;;18.60;10.75;;;;;;;15.11;63.27;102395.81;4969821;28;124740;-67
2021/10/14 07:34:49;;;;;;;20.63;11.02;;;;;;;15.14;63.23;102393.00;4971043;28;120110;-67
2021/10/14 07:37:19;;;;;;;22.75;11.27;;;;;;;15.15;63.42;102400.09;4971366;28;120243;-67
2021/10/14 07:39:47;;;;;;;20.27;11.30;;;;;;;15.17;63.24;102400.91;4944623;28;123823;-67
2021/10/14 07:42:14;;;;;;;20.50;10.82;;;;;;;15.19;63.43;102393.69;4951577;28;122570;-66
2021/10/14 07:44:42;;;;;;;20.83;10.77;;;;;;;15.22;63.28;102398.94;4970000;28;119180;-67
2021/10/14 07:47:09;;;;;;;22.65;11.15;;;;;;;15.25;63.42;102403.25;4970642;28;119125;-67
2021/10/14 07:49:36;;;;;;;19.65;11.15;;;;;;;15.27;63.31;102404.06;4965419;28;122097;-66
2021/10/14 07:52:03;;;;;;;23.50;11.43;;;;;;;15.31;63.49;102408.34;4968105;28;123750;-67
2021/10/14 07:54:31;;;;;;;21.45;11.00;;;;;;;15.34;63.47;102409.09;4952544;28;120460;-67
2021/10/14 07:56:58;;;;;;;23.30;11.10;;;;;;;15.35;63.43;102410.84;4950273;28;117590;-66
2021/10/14 07:59:25;;;;;;;23.10;11.35;;;;;;;15.38;63.22;102405.38;4966533;28;124174;-66
2021/10/14 08:01:53;;;;;;;19.17;10.88;;;;;;;15.42;63.14;102413.28;4966699;28;124341;-66
2021/10/14 08:04:20;;;;;;;22.90;11.07;;;;;;;15.44;63.41;102414.94;4964608;28;119140;-68
2021/10/14 08:06:48;;;;;;;19.10;10.70;;;;;;;15.47;63.42;102414.81;4969530;28;119322;-68
2021/10/14 08:09:15;;;;;;;22.10;11.43;;;;;;;15.49;63.40;102418.28;4968486;28;124105;-68
2021/10/14 08:11:42;;;;;;;21.55;11.77;;;;;;;15.51;63.25;102416.44;4967180;28;123759;-68
2021/10/14 08:14:09;;;;;;;23.05;11.95;;;;;;;15.54;63.33;102415.47;4967466;28;119351;-68
2021/10/14 08:16:36;;;;;;;21.48;11.18;;;;;;;15.56;63.38;102408.25;4968267;28;118994;-67
2021/10/14 08:19:04;;;;;;;26.17;11.80;;;;;;;15.57;63.35;102409.97;4966761;28;124289;-68
2021/10/14 08:21:31;;;;;;;21.92;11.43;;;;;;;15.58;63.30;102409.91;4967363;28;123768;-67
2021/10/14 08:23:58;;;;;;;24.17;11.82;;;;;;;15.60;63.24;102409.84;4968633;28;120169;-67
2021/10/14 08:26:25;;;;;;;20.75;11.30;;;;;;;15.62;63.36;102408.00;4969252;28;119954;-67
2021/10/14 08:28:52;;;;;;;22.15;10.85;;;;;;;15.65;63.58;102413.22;4966262;28;123841;-67
2021/10/14 08:31:21;;;;;;;20.85;11.40;;;;;;;15.68;63.31;102405.06;4967702;28;124029;-67
2021/10/14 08:33:49;;;;;;;21.55;11.77;;;;;;;15.71;63.38;102402.25;4967341;28;119925;-67
2021/10/14 08:36:16;;;;;;;22.48;11.73;;;;;;;15.73;63.36;102405.78;4968684;28;119598;-67
2021/10/14 08:38:44;;;;;;;26.55;12.27;;;;;;;15.75;63.13;102398.56;4966048;28;124820;-68
2021/10/14 08:41:11;;;;;;;22.08;12.15;;;;;;;15.77;63.22;102395.84;4969924;28;123994;-68
2021/10/14 08:43:39;;;;;;;19.83;11.70;;;;;;;15.77;63.28;102391.34;4967145;28;119380;-68
2021/10/14 08:46:07;;;;;;;23.05;11.80;;;;;;;15.81;63.26;102385.88;4969111;28;118471;-68
2021/10/14 08:48:36;;;;;;;21.88;11.73;;;;;;;15.83;63.22;102394.69;4967072;28;123868;-68
2021/10/14 08:51:03;;;;;;;24.70;12.20;;;;;;;15.85;63.35;102404.38;4966891;28;124106;-67
2021/10/14 08:53:30;;;;;;;22.98;11.90;;;;;;;15.87;63.18;102397.16;4967581;28;119115;-68
2021/10/14 08:55:57;;;;;;;24.55;12.02;;;;;;;15.89;63.24;102399.78;4967880;28;119606;-68
2021/10/14 08:58:25;;;;;;;23.58;11.98;;;;;;;15.90;63.43;102401.53;4966246;28;124886;-68
2021/10/14 09:01:12;;;;;;;20.10;11.73;;;;;;;15.92;63.22;102395.19;4967908;28;123825;-68
2021/10/14 09:03:43;;;;;;;22.10;12.27;;;;;;;15.94;63.26;102397.78;4966742;28;119069;-68
2021/10/14 09:06:13;;;;;;;20.95;11.80;;;;;;;15.98;63.23;102383.34;4969822;28;119374;-67
2021/10/14 09:08:41;;;;;;;20.88;11.90;;;;;;;16.01;63.44;102383.22;4966036;28;124532;-68
2021/10/14 09:11:11;;;;;;;21.92;11.98;;;;;;;16.05;63.27;102392.84;4966587;28;123954;-68
2021/10/14 09:13:48;;;;;;;21.73;11.63;;;;;;;16.07;63.33;102393.66;4967987;28;120135;-67
2021/10/14 09:16:30;;;;;;;22.75;12.00;;;;;;;16.08;63.15;102395.38;4967091;28;118980;-68
2021/10/14 09:19:19;;;;;;;23.50;12.98;;;;;;;16.09;63.27;102397.13;4951016;28;123297;-68
2021/10/14 09:22:00;;;;;;;21.13;12.15;;;;;;;16.11;63.21;102395.25;4965675;28;124630;-68
2021/10/14 09:24:30;;;;;;;21.20;12.43;;;;;;;16.13;63.16;102388.03;4964559;28;119384;-68
2021/10/14 09:27:00;;;;;;;23.48;12.20;;;;;;;16.17;63.37;102382.56;4968996;28;119093;-68
2021/10/14 09:29:29;;;;;;;23.00;11.95;;;;;;;16.20;63.27;102382.41;4933000;28;123130;-68
2021/10/14 09:32:03;;;;;;;23.50;12.90;;;;;;;16.23;63.36;102380.47;4970038;28;123829;-68
2021/10/14 09:34:45;;;;;;;20.63;12.13;;;;;;;16.26;63.33;102377.66;4966411;28;119458;-68
2021/10/14 09:37:15;;;;;;;25.42;13.13;;;;;;;16.29;63.37;102376.66;4941970;28;118942;-68
2021/10/14 09:40:03;;;;;;;22.58;12.95;;;;;;;16.32;63.28;102371.19;4971622;28;123922;-68
2021/10/14 09:42:59;;;;;;;25.13;13.40;;;;;;;16.35;63.13;102376.41;4968663;28;124520;-68
2021/10/14 09:45:35;;;;;;;22.00;11.77;;;;;;;16.39;63.17;102372.66;4972438;28;120035;-68
2021/10/14 09:48:05;;;;;;;22.08;11.75;;;;;;;16.40;63.19;102363.66;4957575;28;118049;-67
2021/10/14 09:50:53;;;;;;;22.25;12.00;;;;;;;16.45;63.46;102367.00;4971929;28;124942;-67
2021/10/14 09:53:23;;;;;;;21.15;11.73;;;;;;;16.53;63.35;102378.22;4957302;28;123697;-67
2021/10/14 09:55:52;;;;;;;22.20;12.27;;;;;;;16.60;63.30;102380.63;4973734;28;119631;-67
2021/10/14 09:58:20;;;;;;;23.45;12.60;;;;;;;16.67;63.30;102371.38;4975225;28;120511;-67
2021/10/14 10:00:47;;;;;;;22.33;12.55;;;;;;;16.71;63.18;102372.97;4973647;28;124306;-67
2021/10/14 10:03:24;;;;;;;22.83;13.15;;;;;;;16.75;63.15;102374.56;4970355;28;124700;-66
2021/10/14 10:05:52;;;;;;;21.50;13.02;;;;;;;16.79;63.12;102370.81;4978812;22;121029;-63
2021/10/14 10:08:26;;;;;;;26.00;13.15;;;;;;;16.84;63.05;102370.59;4972660;28;119919;-63
2021/10/14 10:10:57;;;;;;;20.50;11.80;;;;;;;16.89;63.00;102365.91;4975841;28;124117;-63
2021/10/14 10:13:27;;;;;;;21.13;12.27;;;;;;;16.91;62.91;102362.25;4978419;28;123962;-63
2021/10/14 10:15:54;;;;;;;22.33;12.93;;;;;;;16.95;62.84;102356.72;4974779;28;119539;-63
2021/10/14 10:18:27;;;;;;;23.83;12.38;;;;;;;16.98;62.88;102359.28;4961841;28;118862;-63
2021/10/14 10:20:57;;;;;;;22.67;12.48;;;;;;;17.03;62.98;102357.25;4974448;28;123924;-63
2021/10/14 10:23:42;;;;;;;20.27;12.10;;;;;;;17.06;62.86;102357.94;4987628;28;123833;-63
2021/10/14 10:26:37;;;;;;;23.60;11.30;;;;;;;17.10;62.99;102354.19;4957311;28;119147;-63
2021/10/14 10:29:27;;;;;;;20.45;11.73;;;;;;;17.14;62.79;102349.56;4972369;28;118998;-63
2021/10/14 10:31:59;;;;;;;20.05;11.43;;;;;;;17.19;62.62;102350.19;4975602;28;124075;-63
2021/10/14 10:34:30;;;;;;;20.63;11.23;;;;;;;17.23;62.76;102349.09;4972923;28;124023;-63
2021/10/14 10:37:13;;;;;;;19.95;11.25;;;;;;;17.28;62.84;102352.41;4969323;28;119627;-63
2021/10/14 10:39:49;;;;;;;18.60;11.02;;;;;;;17.32;62.51;102348.66;4975403;28;119312;-64
2021/10/14 10:42:30;;;;;;;18.65;9.95;;;;;;;17.37;62.75;102344.91;4973067;28;124657;-64
2021/10/14 10:45:18;;;;;;;18.60;11.13;;;;;;;17.40;62.42;102336.69;4960012;28;124452;-64
2021/10/14 10:47:48;;;;;;;17.73;10.57;;;;;;;17.43;62.45;102340.09;4972856;28;119361;-63
2021/10/14 10:50:21;;;;;;;18.45;9.93;;;;;;;17.48;62.33;102342.53;4972212;28;119193;-64
2021/10/14 10:53:12;;;;;;;18.20;10.00;;;;;;;17.52;62.35;102333.41;4971605;28;124791;-63
2021/10/14 10:55:40;;;;;;;18.45;10.85;;;;;;;17.60;62.31;102331.19;4970648;28;124334;-63
2021/10/14 10:58:09;;;;;;;19.83;11.00;;;;;;;17.67;62.38;102332.63;4968979;28;120372;-63
2021/10/14 11:00:42;;;;;;;19.08;11.00;;;;;;;17.74;62.13;102337.66;4969338;28;119968;-63
2021/10/14 11:03:21;;;;;;;17.35;10.07;;;;;;;17.80;62.18;102337.34;4941341;28;123020;-63
2021/10/14 11:05:53;;;;;;;18.23;10.57;;;;;;;17.85;62.04;102335.31;4969983;28;125252;-63
2021/10/14 11:08:28;;;;;;;19.48;10.25;;;;;;;17.90;61.90;102335.97;4953280;28;118219;-63